Portada
METAR-TAF:

METAR-TAF

Aeropuertos :

Seattle / Tacoma, Washington, Estados Unidos

Aeropuerto Internacional de Seattle-Tacoma

latitud: 47-26-41N, longitud: 122-18-49W, altitud: 130 m

Observación

El informe se hizo hace 40 minutos, a las 08:53 UTC
Viento 8 kt del norte
Temperatura 10°C
Humedad 93%
Presión 1037 hPa
Visibilidad: 16.1 km
Cielo despejado

METAR: KSEA 240853Z 36008KT 10SM CLR 10/09 A3061 RMK AO2 SLP372 T01000089 50000 $

Hora: 02:33 (09:33 UTC)

Pronóstico

El informe se hizo hace 25 minutos, a las 09:08 UTC
Pronóstico válido del 24 a las 09 UTC al 25 a las 12 UTC
Viento 7 kt del norte-noreste
Visibilidad: 10 km
Cielo despejado
A partir de las 24 a las 1200 UTC
Viento 6 kt del norte-noreste
Visibilidad: 10 km
Escasas nubes a una altura de 600 ft
A partir de las 24 a las 1800 UTC
Viento 7 kt del norte
Visibilidad: 10 km
Cielo despejado

TAF: KSEA 240908Z 2409/2512 02007KT P6SM SKC FM241200 02006KT P6SM FEW006 FM241800 01007KT P6SM SKC

Observaciones y pronósticos meteorológicos de más de 4000 aeropuertos (mensajes METAR y TAF).

Los puntos amarillos y rojos representan las estaciones disponibles.

Ponga el ratón en el punto deseado para ver el nombre de la estación.

Haga clic para ver las observaciones y los pronósticos meteorológicos.

Para cambiar el mapa : haga clic en los botones verdes con una cruz de color negro para hacer un zoom, en el botón verde con un guión para alejar o en las flechas verdes para mapas adyacentes.


METAR-TAF: